Terminal Aerodrome Forecast
Issued by NWS St Louis, MO

Home | Current Version | Previous Version | Text Only | Print | Product List | Glossary Off
Versions: 1 2 3 4 5 6 7 8 9 10 11 12 13 14 15 16 17 18 19 20 21 22 23 24 25 26 27 28 29

000
FTUS43 KLSX 290500
TAFSTL
TAF
KSTL 290535Z 2906/3012 18009KT P6SM BKN250 WS017/24040KT
     FM291200 19010KT P6SM BKN015 WS017/24040KT
     FM291500 20012KT P6SM BKN015
     FM291800 20012KT P6SM SCT015
     FM300900 20010KT P6SM BKN015=

USA.gov is the U.S. government's official web portal to all federal, state and local government web resources and services.